Time;durP1;ratioP1;P1;durP2;ratioP2;P2;SDS_P1;SDS_P2;PMS_P1;PMS_P2;Temp;Humidity;BMP_temperature;BMP_pressure;BME280_temperature;BME280_humidity;BME280_pressure;Samples;Min_cycle;Max_cycle;Signal;HPM_P1;HPM_P2
2021/01/12 00:00:20;;;;;;;17.80;7.88;;;5.30;99.90;;;;;;4890595;29;20025;-74
2021/01/12 00:02:46;;;;;;;16.73;7.22;;;5.30;99.90;;;;;;4891045;29;20136;-72
2021/01/12 00:05:12;;;;;;;13.32;7.40;;;5.30;99.90;;;;;;4889499;29;20029;-71
2021/01/12 00:07:38;;;;;;;14.75;6.13;;;5.20;99.90;;;;;;4890796;29;20389;-72
2021/01/12 00:10:05;;;;;;;10.80;5.78;;;5.30;99.90;;;;;;4889713;29;20036;-73
2021/01/12 00:12:31;;;;;;;10.98;6.07;;;5.30;99.90;;;;;;4890556;29;20029;-71
2021/01/12 00:14:56;;;;;;;12.90;7.00;;;5.40;99.90;;;;;;4891011;29;20538;-73
2021/01/12 00:17:22;;;;;;;13.68;6.90;;;5.30;99.90;;;;;;4891145;29;20029;-72
2021/01/12 00:19:47;;;;;;;11.90;6.40;;;5.50;99.90;;;;;;4890697;29;20029;-72
2021/01/12 00:22:16;;;;;;;11.48;6.82;;;5.40;99.90;;;;;;4890115;29;20025;-71
2021/01/12 00:24:46;;;;;;;11.43;5.45;;;5.40;99.90;;;;;;4890684;29;20567;-71
2021/01/12 00:27:12;;;;;;;9.82;4.55;;;5.40;99.90;;;;;;4890414;29;20136;-71
2021/01/12 00:29:38;;;;;;;10.68;5.28;;;5.40;99.90;;;;;;4890631;29;20434;-71
2021/01/12 00:32:04;;;;;;;13.15;6.38;;;5.40;99.90;;;;;;4890730;29;20041;-72
2021/01/12 00:34:32;;;;;;;14.00;7.10;;;5.40;99.90;;;;;;4890213;29;20031;-73
2021/01/12 00:36:57;;;;;;;16.35;7.75;;;5.40;99.90;;;;;;4890987;29;20025;-70
2021/01/12 00:39:23;;;;;;;11.23;4.80;;;5.40;99.90;;;;;;4890353;29;20041;-70
2021/01/12 00:41:52;;;;;;;10.70;4.82;;;5.40;99.90;;;;;;4894290;29;20059;-72
2021/01/12 00:44:17;;;;;;;13.35;5.85;;;5.50;99.90;;;;;;4894594;29;20025;-71
2021/01/12 00:46:45;;;;;;;7.32;4.43;;;5.50;99.90;;;;;;4894031;29;20474;-72
2021/01/12 00:49:13;;;;;;;7.55;4.55;;;5.50;99.90;;;;;;4894022;29;20064;-71
2021/01/12 00:51:40;;;;;;;8.05;4.45;;;5.50;99.90;;;;;;4894294;29;20037;-72
2021/01/12 00:54:17;;;;;;;8.82;5.32;;;5.50;99.90;;;;;;4894372;29;20036;-70
2021/01/12 00:56:43;;;;;;;8.18;5.22;;;5.50;99.90;;;;;;4894029;29;20037;-70
2021/01/12 00:59:08;;;;;;;11.73;5.78;;;5.50;99.90;;;;;;4894237;29;20046;-71
2021/01/12 01:01:37;;;;;;;12.95;5.10;;;5.50;99.90;;;;;;4893390;29;20053;-71
2021/01/12 01:04:04;;;;;;;6.43;3.70;;;5.60;99.90;;;;;;4894146;29;20058;-71
2021/01/12 01:06:29;;;;;;;9.95;5.40;;;5.50;99.90;;;;;;4893970;29;20041;-72
2021/01/12 01:08:55;;;;;;;10.65;4.35;;;5.50;99.90;;;;;;4894058;29;20470;-72
2021/01/12 01:11:21;;;;;;;6.97;4.35;;;5.60;99.90;;;;;;4893831;29;20036;-71
2021/01/12 01:13:47;;;;;;;9.05;4.10;;;5.60;99.90;;;;;;4894000;29;20040;-71
2021/01/12 01:16:13;;;;;;;7.90;4.28;;;5.60;99.90;;;;;;4893463;29;20058;-70
2021/01/12 01:18:39;;;;;;;10.30;4.95;;;5.60;99.90;;;;;;4893799;29;20116;-70
2021/01/12 01:21:05;;;;;;;10.57;5.10;;;5.60;99.90;;;;;;4893844;29;20060;-71
2021/01/12 01:23:30;;;;;;;9.25;5.00;;;5.60;99.90;;;;;;4893513;29;20025;-71
2021/01/12 01:25:56;;;;;;;6.90;4.40;;;5.60;99.90;;;;;;4893677;29;20057;-71
2021/01/12 01:28:23;;;;;;;9.80;4.05;;;5.60;99.90;;;;;;4893886;29;20049;-70
2021/01/12 01:30:52;;;;;;;9.18;5.22;;;5.60;99.90;;;;;;4893267;29;20061;-71
2021/01/12 01:33:17;;;;;;;10.48;4.82;;;5.60;99.90;;;;;;4893716;29;20132;-72
2021/01/12 01:35:43;;;;;;;8.57;4.95;;;5.70;99.90;;;;;;4893561;29;20036;-71
2021/01/12 01:38:09;;;;;;;8.38;3.97;;;5.70;99.90;;;;;;4893297;29;20029;-70
2021/01/12 01:40:35;;;;;;;9.15;4.00;;;5.60;99.90;;;;;;4893639;29;20029;-73
2021/01/12 01:43:01;;;;;;;9.52;4.10;;;5.70;99.90;;;;;;4893564;29;20088;-70
2021/01/12 01:45:26;;;;;;;8.88;4.15;;;5.70;99.90;;;;;;4893335;29;20435;-71
2021/01/12 01:47:53;;;;;;;8.43;4.30;;;5.80;99.90;;;;;;4893167;29;21146;-71
2021/01/12 01:50:20;;;;;;;6.93;3.20;;;5.80;99.90;;;;;;4892725;29;20159;-73
2021/01/12 01:52:56;;;;;;;5.20;2.88;;;5.70;99.90;;;;;;4893097;29;20033;-72
2021/01/12 01:55:23;;;;;;;6.63;3.92;;;5.70;99.90;;;;;;4893357;29;20092;-72
2021/01/12 01:57:49;;;;;;;8.77;2.88;;;5.70;99.90;;;;;;4893145;29;20116;-72
2021/01/12 02:00:19;;;;;;;9.75;3.78;;;5.70;99.90;;;;;;4892531;29;20036;-73
2021/01/12 02:03:01;;;;;;;7.32;3.05;;;5.80;99.90;;;;;;4892972;29;20039;-69
2021/01/12 02:05:32;;;;;;;9.68;3.95;;;5.80;99.90;;;;;;4893258;29;20054;-75
2021/01/12 02:08:01;;;;;;;5.97;3.53;;;5.80;99.90;;;;;;4892728;29;20414;-72
2021/01/12 02:10:29;;;;;;;6.22;3.22;;;5.70;99.90;;;;;;4892874;29;20037;-71
2021/01/12 02:13:07;;;;;;;6.45;3.70;;;5.70;99.90;;;;;;4893158;29;20025;-71
2021/01/12 02:15:34;;;;;;;5.70;3.22;;;5.80;99.90;;;;;;4892440;29;20040;-72
2021/01/12 02:17:59;;;;;;;15.73;4.15;;;5.70;99.90;;;;;;4892777;29;20041;-74
2021/01/12 02:20:28;;;;;;;7.80;3.65;;;5.80;99.90;;;;;;4892754;29;20532;-70
2021/01/12 02:23:25;;;;;;;5.03;3.15;;;5.80;99.90;;;;;;4892923;29;20052;-70
2021/01/12 02:25:52;;;;;;;9.05;3.63;;;5.80;99.90;;;;;;4891344;29;20073;-71
2021/01/12 02:28:18;;;;;;;8.07;4.43;;;5.80;99.90;;;;;;4892291;29;20041;-71
2021/01/12 02:30:45;;;;;;;8.65;3.75;;;5.70;99.90;;;;;;4891236;29;20040;-71
2021/01/12 02:33:10;;;;;;;9.40;4.63;;;5.80;99.90;;;;;;4892479;29;20490;-72
2021/01/12 02:35:39;;;;;;;4.95;3.08;;;5.80;99.90;;;;;;4892109;29;20032;-70
2021/01/12 02:38:05;;;;;;;5.93;3.72;;;5.90;99.90;;;;;;4892559;29;20037;-70
2021/01/12 02:40:32;;;;;;;6.07;3.05;;;5.90;99.90;;;;;;4891206;29;20037;-72
2021/01/12 02:42:57;;;;;;;9.18;3.65;;;5.80;99.90;;;;;;4892300;29;20085;-73
2021/01/12 02:45:23;;;;;;;6.18;3.00;;;5.80;99.90;;;;;;4892287;29;20029;-73
2021/01/12 02:47:49;;;;;;;6.65;3.03;;;5.80;99.90;;;;;;4891925;29;20080;-73
2021/01/12 02:50:15;;;;;;;8.18;4.43;;;5.80;99.90;;;;;;4890825;29;20062;-71
2021/01/12 02:52:45;;;;;;;5.82;2.75;;;5.90;99.90;;;;;;4892389;29;20025;-71
2021/01/12 02:55:12;;;;;;;5.82;4.18;;;5.90;99.90;;;;;;4892055;29;20021;-71
2021/01/12 02:57:38;;;;;;;7.93;3.75;;;5.90;99.90;;;;;;4892057;29;20025;-72
2021/01/12 03:00:07;;;;;;;6.35;3.13;;;5.90;99.90;;;;;;4891904;29;20036;-72
2021/01/12 03:02:32;;;;;;;6.30;3.47;;;5.90;99.90;;;;;;4890697;29;20064;-70
2021/01/12 03:04:58;;;;;;;5.60;3.10;;;6.00;99.90;;;;;;4892230;29;20041;-71
2021/01/12 03:07:23;;;;;;;8.05;3.83;;;5.90;99.90;;;;;;4892085;29;20051;-71
2021/01/12 03:09:49;;;;;;;6.05;3.80;;;5.90;99.90;;;;;;4891539;29;20037;-70
2021/01/12 03:12:15;;;;;;;6.68;3.03;;;5.90;99.90;;;;;;4891840;29;20061;-70
2021/01/12 03:14:42;;;;;;;7.53;3.63;;;5.90;99.90;;;;;;4891588;29;20088;-71
2021/01/12 03:17:10;;;;;;;6.30;3.63;;;5.90;99.90;;;;;;4891590;29;20029;-72
2021/01/12 03:19:35;;;;;;;4.68;2.28;;;6.00;99.90;;;;;;4891807;29;20025;-70
2021/01/12 03:22:01;;;;;;;4.55;2.83;;;6.00;99.90;;;;;;4891688;29;20187;-76
2021/01/12 03:24:27;;;;;;;6.93;3.80;;;6.00;99.90;;;;;;4891448;29;20041;-75
2021/01/12 03:26:52;;;;;;;9.55;3.75;;;6.00;99.90;;;;;;4891708;29;20051;-70
2021/01/12 03:29:18;;;;;;;6.03;2.85;;;6.10;99.90;;;;;;4891396;29;20161;-71
2021/01/12 03:31:43;;;;;;;8.68;3.30;;;5.90;99.90;;;;;;4891410;29;20071;-71
2021/01/12 03:34:09;;;;;;;5.55;2.95;;;6.00;99.90;;;;;;4891579;29;20033;-72
2021/01/12 03:36:34;;;;;;;6.05;2.75;;;6.00;99.90;;;;;;4891132;29;20037;-70
2021/01/12 03:39:00;;;;;;;4.25;2.17;;;6.00;99.90;;;;;;4891408;29;20025;-71
2021/01/12 03:41:25;;;;;;;5.13;2.50;;;6.10;99.90;;;;;;4891686;29;20037;-74
2021/01/12 03:43:51;;;;;;;7.53;3.08;;;6.00;99.90;;;;;;4891025;29;20037;-72
2021/01/12 03:46:17;;;;;;;5.15;3.28;;;6.00;99.90;;;;;;4891220;29;20077;-71
2021/01/12 03:48:42;;;;;;;5.53;2.25;;;6.00;99.90;;;;;;4891272;29;20053;-71
2021/01/12 03:51:08;;;;;;;7.25;3.70;;;6.10;99.90;;;;;;4890808;29;20535;-70
2021/01/12 03:53:34;;;;;;;6.30;3.22;;;6.10;99.90;;;;;;4891327;29;20044;-71
2021/01/12 03:56:00;;;;;;;6.03;2.70;;;6.10;99.90;;;;;;4891111;29;20112;-71
2021/01/12 03:58:26;;;;;;;7.85;3.97;;;6.10;99.90;;;;;;4891109;29;20033;-70
2021/01/12 04:00:52;;;;;;;5.90;3.10;;;6.10;99.90;;;;;;4889231;29;20069;-72
2021/01/12 04:03:19;;;;;;;4.93;2.95;;;6.10;99.90;;;;;;4890743;29;20029;-71
2021/01/12 04:05:45;;;;;;;4.68;2.83;;;6.10;99.90;;;;;;4891044;29;20037;-71
2021/01/12 04:08:11;;;;;;;3.50;2.22;;;6.10;99.90;;;;;;4891044;29;20092;-71
2021/01/12 04:10:37;;;;;;;5.50;2.97;;;6.10;99.90;;;;;;4890576;29;20036;-73
2021/01/12 04:13:03;;;;;;;6.65;2.80;;;6.00;99.90;;;;;;4889531;29;20033;-71
2021/01/12 04:15:29;;;;;;;10.80;2.47;;;6.10;99.90;;;;;;4891006;29;20037;-72
2021/01/12 04:17:54;;;;;;;8.25;2.78;;;6.10;99.90;;;;;;4890654;29;20025;-70
2021/01/12 04:20:21;;;;;;;6.93;2.83;;;6.00;99.90;;;;;;4890617;29;20037;-70
2021/01/12 04:22:46;;;;;;;9.57;3.85;;;6.10;99.90;;;;;;4890841;29;20092;-71
2021/01/12 04:25:12;;;;;;;6.32;3.50;;;6.10;99.90;;;;;;4890444;29;20037;-71
2021/01/12 04:27:38;;;;;;;4.40;3.00;;;6.10;99.90;;;;;;4890374;29;20045;-71
2021/01/12 04:30:05;;;;;;;5.35;3.25;;;6.10;99.90;;;;;;4890658;29;20036;-71
2021/01/12 04:32:31;;;;;;;6.40;2.95;;;6.10;99.90;;;;;;4889087;29;20029;-71
2021/01/12 04:34:56;;;;;;;4.13;2.50;;;6.10;99.90;;;;;;4890803;29;20094;-73
2021/01/12 04:37:22;;;;;;;6.18;2.92;;;6.20;99.90;;;;;;4890913;29;20108;-70
2021/01/12 04:39:48;;;;;;;4.22;2.42;;;6.10;99.90;;;;;;4889106;29;20033;-71
2021/01/12 04:42:13;;;;;;;6.35;2.80;;;6.10;99.90;;;;;;4890854;29;20025;-70
2021/01/12 04:44:39;;;;;;;6.72;3.72;;;6.10;99.90;;;;;;4890602;29;20066;-71
2021/01/12 04:47:06;;;;;;;6.18;3.17;;;6.10;99.90;;;;;;4890142;29;20097;-70
2021/01/12 04:49:32;;;;;;;5.57;2.70;;;6.00;99.90;;;;;;4889335;29;20025;-74
2021/01/12 04:51:58;;;;;;;6.47;3.10;;;6.10;99.90;;;;;;4890707;29;20509;-73
2021/01/12 04:54:34;;;;;;;4.43;2.38;;;6.10;99.90;;;;;;4888886;29;20037;-72
2021/01/12 04:57:00;;;;;;;5.80;2.70;;;6.10;99.90;;;;;;4890714;29;20032;-70
2021/01/12 04:59:30;;;;;;;4.97;2.50;;;6.10;99.90;;;;;;4890435;29;20037;-70
2021/01/12 05:01:57;;;;;;;4.05;2.75;;;6.10;99.90;;;;;;4889068;29;20085;-70
2021/01/12 05:04:23;;;;;;;7.20;2.72;;;6.10;99.90;;;;;;4890414;29;20025;-70
2021/01/12 05:06:49;;;;;;;5.13;2.30;;;6.10;99.90;;;;;;4889954;29;20049;-71
2021/01/12 05:09:23;;;;;;;4.82;2.28;;;6.00;99.90;;;;;;4890176;29;20029;-72
2021/01/12 05:11:53;;;;;;;5.10;2.72;;;6.10;99.90;;;;;;4890248;29;20044;-71
2021/01/12 05:14:22;;;;;;;4.72;3.10;;;6.10;99.90;;;;;;4890087;29;20032;-70
2021/01/12 05:16:51;;;;;;;4.20;2.55;;;6.10;99.90;;;;;;4890291;29;20093;-70
2021/01/12 05:19:26;;;;;;;4.25;2.15;;;6.10;99.90;;;;;;4890138;29;20085;-71
2021/01/12 05:21:57;;;;;;;6.05;3.13;;;6.10;99.90;;;;;;4890098;29;20040;-70
2021/01/12 05:24:23;;;;;;;4.35;2.65;;;6.10;99.90;;;;;;4890672;29;20025;-72
2021/01/12 05:26:49;;;;;;;4.20;1.92;;;6.10;99.90;;;;;;4893619;29;20069;-73
2021/01/12 05:29:15;;;;;;;5.03;2.75;;;6.10;99.90;;;;;;4892140;29;20029;-70
2021/01/12 05:31:45;;;;;;;8.93;2.58;;;6.10;99.90;;;;;;4893348;29;20033;-70
2021/01/12 05:34:11;;;;;;;3.72;2.25;;;6.10;99.90;;;;;;4893529;29;20036;-72
2021/01/12 05:36:51;;;;;;;4.05;2.30;;;6.00;99.90;;;;;;4893143;29;20029;-71
2021/01/12 05:39:22;;;;;;;3.55;1.83;;;6.10;99.90;;;;;;4893546;29;20025;-71
2021/01/12 05:41:50;;;;;;;1.65;0.55;;;6.10;99.90;;;;;;4893148;29;20033;-71
2021/01/12 05:44:17;;;;;;;0.65;0.30;;;6.00;99.90;;;;;;4893368;29;20470;-72
2021/01/12 05:46:47;;;;;;;0.57;0.40;;;5.90;99.90;;;;;;4893186;29;20066;-71
2021/01/12 05:49:13;;;;;;;0.13;0.10;;;5.80;99.90;;;;;;4893244;29;20470;-71
2021/01/12 05:51:44;;;;;;;1.27;0.85;;;5.80;99.90;;;;;;4893165;29;20045;-71
2021/01/12 05:54:26;;;;;;;1.98;0.63;;;5.80;99.90;;;;;;4893504;29;20048;-71
2021/01/12 05:56:58;;;;;;;1.38;0.38;;;5.70;99.90;;;;;;4893007;29;20037;-71
2021/01/12 05:59:32;;;;;;;1.15;0.40;;;5.70;99.90;;;;;;4893212;29;20073;-71
2021/01/12 06:01:59;;;;;;;0.22;0.10;;;5.60;99.90;;;;;;4892997;29;20049;-72
2021/01/12 06:04:24;;;;;;;0.40;0.28;;;5.60;99.90;;;;;;4892934;29;20044;-72
2021/01/12 06:06:55;;;;;;;3.50;0.35;;;5.60;99.90;;;;;;4891640;29;20048;-71
2021/01/12 06:09:22;;;;;;;1.63;0.40;;;5.60;99.90;;;;;;4893059;29;20107;-72
2021/01/12 06:11:57;;;;;;;0.85;0.47;;;5.50;99.90;;;;;;4892848;29;20033;-72
2021/01/12 06:14:25;;;;;;;1.52;0.70;;;5.50;99.90;;;;;;4892947;29;20065;-71
2021/01/12 06:16:51;;;;;;;2.28;0.35;;;5.50;99.90;;;;;;4892725;29;20394;-72
2021/01/12 06:19:20;;;;;;;0.22;0.20;;;5.50;99.90;;;;;;4892493;29;20033;-70
2021/01/12 06:21:55;;;;;;;1.55;0.40;;;5.40;99.90;;;;;;4892792;29;20033;-71
2021/01/12 06:24:36;;;;;;;1.65;0.77;;;5.40;99.90;;;;;;4892269;29;20088;-69
2021/01/12 06:27:22;;;;;;;0.98;0.40;;;5.30;99.90;;;;;;4892596;29;20069;-71
2021/01/12 06:29:49;;;;;;;4.80;0.82;;;5.20;99.90;;;;;;4892706;29;20037;-71
2021/01/12 06:32:20;;;;;;;0.75;0.43;;;5.10;99.90;;;;;;4892093;29;20067;-70
2021/01/12 06:34:45;;;;;;;0.65;0.55;;;5.10;99.90;;;;;;4891395;29;20033;-70
2021/01/12 06:37:14;;;;;;;2.33;0.28;;;5.00;99.90;;;;;;4891205;29;20062;-70
2021/01/12 06:39:43;;;;;;;0.20;0.20;;;5.00;99.90;;;;;;4890818;29;20029;-72
2021/01/12 06:42:09;;;;;;;1.13;0.47;;;4.90;99.90;;;;;;4892702;29;20033;-71
2021/01/12 06:44:36;;;;;;;0.82;0.20;;;4.90;99.90;;;;;;4891951;29;20021;-71
2021/01/12 06:47:04;;;;;;;6.30;0.60;;;4.80;99.90;;;;;;4892224;29;20037;-70
2021/01/12 06:49:30;;;;;;;0.55;0.45;;;4.80;99.90;;;;;;4892526;29;20451;-72
2021/01/12 06:52:09;;;;;;;2.67;0.93;;;4.70;99.90;;;;;;4892272;29;20025;-71
2021/01/12 06:54:39;;;;;;;0.40;0.30;;;4.70;99.90;;;;;;4892211;29;20081;-71
2021/01/12 06:57:05;;;;;;;2.22;0.60;;;4.70;99.90;;;;;;4892049;29;20052;-71
2021/01/12 06:59:54;;;;;;;3.97;0.52;;;4.60;99.90;;;;;;4891659;29;20033;-72
2021/01/12 07:02:28;;;;;;;4.75;1.17;;;4.60;99.90;;;;;;4891691;29;20060;-70
2021/01/12 07:04:54;;;;;;;4.57;1.80;;;4.60;99.90;;;;;;4892067;29;20134;-71
2021/01/12 07:07:23;;;;;;;6.97;1.75;;;4.60;99.90;;;;;;4891483;29;20117;-71
2021/01/12 07:09:51;;;;;;;3.80;0.47;;;4.60;99.90;;;;;;4891870;29;20040;-71
2021/01/12 07:12:20;;;;;;;0.88;0.32;;;4.60;99.90;;;;;;4891481;29;20040;-70
2021/01/12 07:14:51;;;;;;;4.28;0.95;;;4.50;99.90;;;;;;4891557;29;20111;-70
2021/01/12 07:17:47;;;;;;;3.03;0.85;;;4.60;99.90;;;;;;4891312;29;20033;-70
2021/01/12 07:20:15;;;;;;;4.78;0.70;;;4.50;99.90;;;;;;4887059;29;20052;-70
2021/01/12 07:23:01;;;;;;;2.03;0.65;;;4.50;99.90;;;;;;4891516;29;20108;-70
2021/01/12 07:25:27;;;;;;;2.83;0.35;;;4.50;99.90;;;;;;4891019;29;20045;-70
2021/01/12 07:28:07;;;;;;;2.65;0.65;;;4.40;99.90;;;;;;4890964;29;20060;-69
2021/01/12 07:30:35;;;;;;;3.03;1.17;;;4.50;99.90;;;;;;4891504;29;20025;-69
2021/01/12 07:33:04;;;;;;;3.85;1.13;;;4.50;99.90;;;;;;4891056;29;20085;-71
2021/01/12 07:35:31;;;;;;;0.85;0.57;;;4.40;99.90;;;;;;4891079;29;20107;-71
2021/01/12 07:37:57;;;;;;;5.32;0.80;;;4.50;99.90;;;;;;4891526;29;20037;-71
2021/01/12 07:40:23;;;;;;;4.47;0.93;;;4.40;99.90;;;;;;4891391;29;20100;-70
2021/01/12 07:42:53;;;;;;;2.13;0.57;;;4.40;99.90;;;;;;4891042;29;20033;-69
2021/01/12 07:45:24;;;;;;;1.33;0.73;;;4.40;99.90;;;;;;4891100;29;20069;-70
2021/01/12 07:47:51;;;;;;;3.65;1.00;;;4.40;99.90;;;;;;4890372;29;20518;-70
2021/01/12 07:50:18;;;;;;;2.63;1.05;;;4.40;99.90;;;;;;4890781;29;20624;-70
2021/01/12 07:52:44;;;;;;;2.92;0.50;;;4.40;99.90;;;;;;4890708;29;20056;-69
2021/01/12 07:55:09;;;;;;;11.00;1.23;;;4.40;99.90;;;;;;4890774;29;20036;-70
2021/01/12 07:57:36;;;;;;;2.28;0.43;;;4.40;99.90;;;;;;4889679;29;20097;-72
2021/01/12 08:00:05;;;;;;;3.10;0.70;;;4.30;99.90;;;;;;4890731;29;20032;-72
2021/01/12 08:02:32;;;;;;;1.70;0.50;;;4.30;99.90;;;;;;4890288;29;20080;-70
2021/01/12 08:04:57;;;;;;;7.43;0.63;;;4.30;99.90;;;;;;4890941;29;20462;-72
2021/01/12 08:07:24;;;;;;;1.13;0.38;;;4.30;99.90;;;;;;4890919;29;20064;-71
2021/01/12 08:09:57;;;;;;;0.98;0.57;;;4.30;99.90;;;;;;4889162;29;20036;-71
2021/01/12 08:12:23;;;;;;;2.20;0.63;;;4.30;99.90;;;;;;4889468;29;20037;-71
2021/01/12 08:14:52;;;;;;;2.05;0.50;;;4.30;99.90;;;;;;4890438;29;20269;-71
2021/01/12 08:17:26;;;;;;;2.17;0.30;;;4.30;99.90;;;;;;4890368;29;20090;-71
2021/01/12 08:19:55;;;;;;;3.63;0.35;;;4.30;99.90;;;;;;4890869;29;20339;-71
2021/01/12 08:22:22;;;;;;;0.43;0.15;;;4.30;99.90;;;;;;4890225;29;20092;-71
2021/01/12 08:24:48;;;;;;;1.45;0.30;;;4.30;99.90;;;;;;4890394;29;20043;-71
2021/01/12 08:27:19;;;;;;;3.38;0.50;;;4.30;99.90;;;;;;4889190;29;20061;-71
2021/01/12 08:29:45;;;;;;;5.65;0.50;;;4.30;99.90;;;;;;4890360;29;20033;-71
2021/01/12 08:32:14;;;;;;;4.57;0.63;;;4.40;99.90;;;;;;4890287;29;20028;-71
2021/01/12 08:34:56;;;;;;;3.70;1.25;;;4.30;99.90;;;;;;4890544;29;20029;-71
2021/01/12 08:37:23;;;;;;;6.22;1.42;;;4.40;99.90;;;;;;4890416;29;20495;-70
2021/01/12 08:39:50;;;;;;;4.60;0.73;;;4.40;99.90;;;;;;4888886;29;20115;-71
2021/01/12 08:42:19;;;;;;;1.70;0.73;;;4.30;99.90;;;;;;4890277;29;20085;-71
2021/01/12 08:44:45;;;;;;;9.52;0.60;;;4.30;99.90;;;;;;4889915;29;20035;-71
2021/01/12 08:47:10;;;;;;;1.92;0.57;;;4.40;99.90;;;;;;4890244;29;20065;-72
2021/01/12 08:49:36;;;;;;;1.40;0.65;;;4.60;99.90;;;;;;4890275;29;20025;-70
2021/01/12 08:52:04;;;;;;;0.35;0.35;;;4.50;99.90;;;;;;4889883;29;20080;-71
2021/01/12 08:54:31;;;;;;;0.57;0.22;;;4.40;99.90;;;;;;4890422;29;20025;-71
2021/01/12 08:57:04;;;;;;;1.45;0.30;;;4.50;99.90;;;;;;4890205;29;20021;-73
2021/01/12 08:59:32;;;;;;;1.45;0.85;;;4.50;99.90;;;;;;4891325;29;20036;-72
2021/01/12 09:02:00;;;;;;;1.08;0.47;;;4.50;99.90;;;;;;4894276;29;20064;-72
2021/01/12 09:04:28;;;;;;;3.20;0.40;;;4.60;99.90;;;;;;4892376;29;20405;-72
2021/01/12 09:07:01;;;;;;;2.72;0.75;;;4.60;99.90;;;;;;4892834;29;20417;-71
2021/01/12 09:09:27;;;;;;;1.02;0.65;;;4.60;99.90;;;;;;4892983;29;20043;-72
2021/01/12 09:11:53;;;;;;;3.22;1.33;;;4.60;99.90;;;;;;4893492;29;20041;-71
2021/01/12 09:14:22;;;;;;;1.55;0.93;;;4.70;99.90;;;;;;4893875;29;20036;-71
2021/01/12 09:16:58;;;;;;;1.60;1.10;;;4.70;99.90;;;;;;4893683;29;20133;-71
2021/01/12 09:19:25;;;;;;;1.33;0.50;;;4.60;99.90;;;;;;4881485;29;20410;-72
2021/01/12 09:21:51;;;;;;;0.88;0.38;;;4.60;99.90;;;;;;4873329;29;20033;-72
2021/01/12 09:24:18;;;;;;;0.45;0.35;;;4.60;99.90;;;;;;4872620;29;20519;-72
2021/01/12 09:26:44;;;;;;;1.17;0.35;;;4.60;99.90;;;;;;4875543;29;20089;-71
2021/01/12 09:29:10;;;;;;;1.65;0.30;;;4.60;99.90;;;;;;4892684;29;20120;-71
2021/01/12 09:31:47;;;;;;;0.40;0.40;;;4.60;99.90;;;;;;4892742;29;20032;-72
2021/01/12 09:34:20;;;;;;;12.60;1.13;;;4.60;99.90;;;;;;4892212;29;20085;-70
2021/01/12 09:36:45;;;;;;;0.22;0.17;;;4.60;99.90;;;;;;4892995;29;20029;-70
2021/01/12 09:39:12;;;;;;;3.10;1.10;;;4.50;99.90;;;;;;4891978;29;20620;-71
2021/01/12 09:41:39;;;;;;;1.10;0.65;;;4.50;99.90;;;;;;4892667;29;20033;-71
2021/01/12 09:44:05;;;;;;;1.98;0.60;;;4.50;99.90;;;;;;4892494;29;20040;-71
2021/01/12 09:46:32;;;;;;;8.07;1.23;;;4.50;99.90;;;;;;4892609;29;20059;-71
2021/01/12 09:48:58;;;;;;;1.02;0.55;;;4.60;99.90;;;;;;4906631;29;20025;-72
2021/01/12 09:51:25;;;;;;;1.20;0.55;;;5.10;99.90;;;;;;4892681;29;20493;-71
2021/01/12 09:53:50;;;;;;;2.50;0.60;;;5.70;99.90;;;;;;4892425;29;20037;-70
2021/01/12 09:56:17;;;;;;;3.10;0.88;;;6.20;99.90;;;;;;4892582;29;20037;-72
2021/01/12 09:58:49;;;;;;;3.33;0.75;;;6.80;99.90;;;;;;4890445;29;20029;-71
2021/01/12 10:01:15;;;;;;;5.07;1.00;;;7.20;99.90;;;;;;4892461;29;20049;-71
2021/01/12 10:03:41;;;;;;;1.20;0.57;;;7.70;99.90;;;;;;4892544;29;20029;-71
2021/01/12 10:06:07;;;;;;;2.03;0.57;;;8.10;99.90;;;;;;4892973;29;20040;-72
2021/01/12 10:08:33;;;;;;;10.35;1.10;;;;;;;;;;4892663;29;20153;-72
2021/01/12 10:10:59;;;;;;;7.38;1.20;;;;;;;;;;4892330;29;20059;-73
2021/01/12 10:13:25;;;;;;;1.30;0.73;;;;;;;;;;4891779;29;20029;-73
2021/01/12 10:15:51;;;;;;;10.93;0.55;;;;;;;;;;4891166;29;20037;-72
2021/01/12 10:18:17;;;;;;;1.83;0.90;;;;;;;;;;4892608;29;20056;-71
2021/01/12 10:20:43;;;;;;;3.47;1.17;;;;;;;;;;4892779;29;20103;-72
2021/01/12 10:23:09;;;;;;;2.17;0.90;;;;;;;;;;4892426;29;20046;-72
2021/01/12 10:25:35;;;;;;;1.60;0.63;;;;;;;;;;4892274;29;20021;-72
2021/01/12 10:28:02;;;;;;;1.42;0.45;;;;;;;;;;4892491;29;20426;-72
2021/01/12 10:30:28;;;;;;;3.55;0.60;;;;;;;;;;4892190;29;20502;-72
2021/01/12 10:32:54;;;;;;;8.15;0.88;;;;;;;;;;4892100;29;20048;-72
2021/01/12 10:35:20;;;;;;;1.52;0.50;;;;;;;;;;4890850;29;20037;-72
2021/01/12 10:37:46;;;;;;;3.38;0.70;;;;;;;;;;4891805;29;20025;-71
2021/01/12 10:40:13;;;;;;;1.13;0.52;;;;;;;;;;4890871;29;20029;-72
2021/01/12 10:42:42;;;;;;;7.05;1.25;;;;;;;;;;4892146;29;20025;-70
2021/01/12 10:45:09;;;;;;;1.20;0.50;;;;;;;;;;4891786;29;20405;-71
2021/01/12 10:47:35;;;;;;;2.05;0.57;;;;;;;;;;4892003;29;20506;-72
2021/01/12 10:50:01;;;;;;;0.95;0.45;;;;;;;;;;4891991;29;20040;-72
2021/01/12 10:52:28;;;;;;;7.78;1.15;;;;;;;;;;4890726;29;20044;-73
2021/01/12 10:54:54;;;;;;;9.90;1.15;;;;;;;;;;4889347;29;20034;-72
2021/01/12 10:57:20;;;;;;;4.90;0.80;;;;;;;;;;4878345;29;20738;-71
2021/01/12 10:59:46;;;;;;;2.17;0.63;;;;;;;;;;4891654;29;20325;-72
2021/01/12 11:02:12;;;;;;;0.93;0.38;;;;;;;;;;4890958;29;20057;-70
2021/01/12 11:04:38;;;;;;;0.52;0.22;;;;;;;;;;4890139;29;20029;-71
2021/01/12 11:07:04;;;;;;;0.98;0.60;;;;;;;;;;4891609;29;20079;-71
2021/01/12 11:09:31;;;;;;;0.70;0.20;;;;;;;;;;4891026;29;20548;-72
2021/01/12 11:12:02;;;;;;;2.97;0.57;;;;;;;;;;4891284;29;20025;-70
2021/01/12 11:14:28;;;;;;;4.75;0.82;;;;;;;;;;4891755;29;20025;-72
2021/01/12 11:16:54;;;;;;;0.73;0.45;;;;;;;;;;4891100;29;20596;-70
2021/01/12 11:19:20;;;;;;;1.08;0.32;;;;;;;;;;4890549;29;20029;-71
2021/01/12 11:21:47;;;;;;;2.63;0.50;;;;;;;;;;4890677;29;20052;-71
2021/01/12 11:24:14;;;;;;;2.10;0.40;;;;;;;;;;4890854;29;20033;-70
2021/01/12 11:26:41;;;;;;;2.00;0.55;;;;;;;;;;4890367;29;20035;-73
2021/01/12 11:29:07;;;;;;;0.47;0.28;;;;;;;;;;4891174;29;20032;-70
2021/01/12 11:31:33;;;;;;;1.38;0.45;;;;;;;;;;4891249;29;20033;-71
2021/01/12 11:34:00;;;;;;;0.28;0.28;;;;;;;;;;4889739;29;20024;-73
2021/01/12 11:36:31;;;;;;;4.10;0.57;;;;;;;;;;4891641;29;20037;-70
2021/01/12 11:38:57;;;;;;;2.28;0.52;;;;;;;;;;4890232;29;20121;-70
2021/01/12 11:41:23;;;;;;;2.88;0.60;;;;;;;;;;4891031;29;20037;-70
2021/01/12 11:43:49;;;;;;;1.25;0.32;;;;;;;;;;4891306;29;20442;-70
2021/01/12 11:46:15;;;;;;;8.73;0.98;;;;;;;;;;4890985;29;20089;-71
2021/01/12 11:48:41;;;;;;;1.90;0.85;;;;;;;;;;4890844;29;20041;-70
2021/01/12 11:51:07;;;;;;;0.25;0.13;;;;;;;;;;4891165;29;20512;-70
2021/01/12 11:53:33;;;;;;;4.13;0.63;;;;;;;;;;4890936;29;20355;-72
2021/01/12 11:55:59;;;;;;;1.95;0.52;;;;;;;;;;4891279;29;20057;-71
2021/01/12 11:58:25;;;;;;;1.67;0.50;;;;;;;;;;4891364;29;20505;-70
2021/01/12 12:00:51;;;;;;;0.45;0.40;;;;;;;;;;4890411;29;20077;-71
2021/01/12 12:03:17;;;;;;;1.65;0.32;;;;;;;;;;4890750;29;20036;-71
2021/01/12 12:05:45;;;;;;;0.57;0.50;;;;;;;;;;4890449;29;20105;-70
2021/01/12 12:08:11;;;;;;;0.75;0.20;;;;;;;;;;4890384;29;20482;-71
2021/01/12 12:10:38;;;;;;;0.43;0.22;;;;;;;;;;4890469;29;20033;-69
2021/01/12 12:13:03;;;;;;;0.10;0.10;;;;;;;;;;4898717;29;20024;-70
2021/01/12 12:15:29;;;;;;;2.30;0.73;;;;;;;;;;4908205;29;20418;-72
2021/01/12 12:17:56;;;;;;;1.08;0.55;;;;;;;;;;4897647;29;20025;-69
2021/01/12 12:20:22;;;;;;;2.65;0.43;;;;;;;;;;4889934;29;20650;-70
2021/01/12 12:22:48;;;;;;;2.08;0.60;;;;;;;;;;4889731;29;20029;-71
2021/01/12 12:25:14;;;;;;;0.63;0.10;;;;;;;;;;4889910;29;20054;-70
2021/01/12 12:27:40;;;;;;;1.60;0.30;;;;;;;;;;4889849;29;20041;-70
2021/01/12 12:30:06;;;;;;;0.98;0.30;;;;;;;;;;4889559;29;20081;-73
2021/01/12 12:32:32;;;;;;;0.60;0.32;;;;;;;;;;4889999;29;20033;-70
2021/01/12 12:34:59;;;;;;;0.43;0.30;;;;;;;;;;4888764;29;20025;-73
2021/01/12 12:37:25;;;;;;;1.52;0.45;;;;;;;;;;4889977;29;20058;-70
2021/01/12 12:39:51;;;;;;;1.55;0.28;;;;;;;;;;4888592;29;20036;-71
2021/01/12 12:42:17;;;;;;;1.35;0.40;;;;;;;;;;4889855;29;20088;-70
2021/01/12 12:44:44;;;;;;;4.15;0.63;;;;;;;;;;4889787;29;20052;-69
2021/01/12 12:47:11;;;;;;;6.07;0.30;;;;;;;;;;4890029;29;20045;-71
2021/01/12 12:49:37;;;;;;;0.30;0.22;;;;;;;;;;4889887;29;20075;-72
2021/01/12 12:52:05;;;;;;;0.10;0.10;;;;;;;;;;4889517;29;20080;-71
2021/01/12 12:54:31;;;;;;;1.10;0.40;;;;;;;;;;4890265;29;20116;-72
2021/01/12 12:56:59;;;;;;;0.22;0.17;;;;;;;;;;4889659;29;20025;-69
2021/01/12 12:59:25;;;;;;;0.30;0.30;;;;;;;;;;4889308;29;20021;-69
2021/01/12 13:01:52;;;;;;;0.45;0.45;;;;;;;;;;4889664;29;20081;-69
2021/01/12 13:04:18;;;;;;;2.05;0.60;;;;;;;;;;4888699;29;20029;-69
2021/01/12 13:06:48;;;;;;;5.30;1.30;;;;;;;;;;4889359;29;20064;-70
2021/01/12 13:09:14;;;;;;;0.65;0.32;;;;;;;;;;4890361;29;20076;-71
2021/01/12 13:11:42;;;;;;;1.52;0.45;;;;;;;;;;4888741;29;20040;-70
2021/01/12 13:14:08;;;;;;;4.65;0.70;;;;;;;;;;4890131;29;20054;-72
2021/01/12 13:16:36;;;;;;;0.32;0.32;;;8.40;99.90;;;;;;4889977;29;20033;-69
2021/01/12 13:19:10;;;;;;;1.95;0.50;;;8.90;99.90;;;;;;4889848;29;20026;-71
2021/01/12 13:21:36;;;;;;;5.15;1.05;;;8.40;99.90;;;;;;4890219;29;20037;-72